Garupa, Argentina
Current Conditions -  °F | °C
As of 2:00 AM on Saturday 25 Oct 2014 (Local Time) from SARP Reporting Station
Clear Clear  
Wind Chill: 77°   Ceiling: Unl
Heat Index: 79°   Visibility: 6mi
Dew Point: 59°   Wind: 5mph
Humidity: 54%   Direction: 140°SE
Pressure: 29.85"   Gusts: NA
Location:  27.48°S, 55.83°W
Report Text: SARP 250500Z 14004KT CAVOK 25/15 Q1011
Loading
Personal Weather Stations






























Interactive Weather Map New forecast layout! Learn more

10-Day Weather Forecast

Advertisements
Track Severe Weather on mobile